Time;durP1;ratioP1;P1;durP2;ratioP2;P2;SDS_P1;SDS_P2;PMS_P1;PMS_P2;Temp;Humidity;BMP_temperature;BMP_pressure;BME280_temperature;BME280_humidity;BME280_pressure;Samples;Min_cycle;Max_cycle;Signal;HPM_P1;HPM_P2
2023/03/27 00:01:29;;;;;;;13.50;3.10;;;;;;;3.73;100.00;98320.22;5067395;28;20200;-80
2023/03/27 00:04:02;;;;;;;9.70;2.93;;;;;;;3.70;100.00;98323.84;5071708;28;20648;-79
2023/03/27 00:06:33;;;;;;;12.17;3.50;;;;;;;3.57;100.00;98327.13;5072818;28;20200;-80
2023/03/27 00:09:02;;;;;;;11.13;3.00;;;;;;;3.57;100.00;98325.38;5064972;28;20188;-80
2023/03/27 00:11:32;;;;;;;11.17;3.10;;;;;;;3.51;100.00;98323.06;5073058;28;20204;-80
2023/03/27 00:14:01;;;;;;;13.83;2.77;;;;;;;3.44;100.00;98330.34;5074239;28;20192;-80
2023/03/27 00:16:30;;;;;;;8.97;2.67;;;;;;;3.35;100.00;98328.16;5071418;28;20658;-79
2023/03/27 00:18:59;;;;;;;5.63;2.17;;;;;;;3.28;100.00;98337.25;5070220;28;20220;-80
2023/03/27 00:21:30;;;;;;;8.93;2.80;;;;;;;3.25;100.00;98347.84;5070660;28;20193;-80
2023/03/27 00:24:00;;;;;;;9.10;2.40;;;;;;;3.20;100.00;98341.16;5070747;28;20227;-79
2023/03/27 00:26:29;;;;;;;8.37;2.40;;;;;;;3.08;100.00;98347.78;5064966;28;20238;-80
2023/03/27 00:28:58;;;;;;;7.87;2.23;;;;;;;3.05;100.00;98361.03;5069533;28;20200;-79
2023/03/27 00:31:26;;;;;;;6.90;2.20;;;;;;;3.01;100.00;98360.31;5068118;28;20821;-80
2023/03/27 00:33:55;;;;;;;10.57;2.37;;;;;;;2.98;100.00;98376.13;5059764;28;20236;-79
2023/03/27 00:36:24;;;;;;;8.67;2.40;;;;;;;3.00;100.00;98386.56;5067954;28;20184;-80
2023/03/27 00:38:54;;;;;;;8.20;2.13;;;;;;;3.03;100.00;98395.09;5071040;28;20200;-80
2023/03/27 00:41:22;;;;;;;6.23;2.23;;;;;;;3.02;100.00;98389.94;5065849;28;20207;-79
2023/03/27 00:43:57;;;;;;;6.60;2.13;;;;;;;3.03;100.00;98395.09;5013249;28;20283;-79
2023/03/27 00:46:33;;;;;;;11.23;2.67;;;;;;;2.96;100.00;98398.91;5069168;28;20249;-81
2023/03/27 00:49:06;;;;;;;12.07;2.17;;;;;;;3.03;100.00;98397.72;5068278;28;20188;-80
2023/03/27 00:51:36;;;;;;;4.73;2.00;;;;;;;2.90;100.00;98393.97;4984516;28;20237;-80
2023/03/27 00:54:06;;;;;;;10.20;2.20;;;;;;;3.01;100.00;98404.78;4987173;28;20206;-80
2023/03/27 00:56:37;;;;;;;12.83;2.60;;;;;;;2.92;100.00;98404.38;4983121;28;20191;-80
2023/03/27 00:59:10;;;;;;;9.53;2.03;;;;;;;3.07;100.00;98409.72;4985024;28;20250;-79
2023/03/27 01:01:39;;;;;;;9.83;2.20;;;;;;;2.98;100.00;98410.13;4991866;28;20246;-80
2023/03/27 01:04:09;;;;;;;6.90;2.37;;;;;;;2.99;100.00;98409.25;4988317;28;20241;-80
2023/03/27 01:06:40;;;;;;;5.67;1.87;;;;;;;2.89;100.00;98410.56;4989243;28;20216;-79
2023/03/27 01:09:10;;;;;;;8.83;2.00;;;;;;;2.95;100.00;98425.13;5011025;28;20195;-80
2023/03/27 01:12:02;;;;;;;7.60;2.40;;;;;;;3.02;100.00;98423.94;5072220;28;20192;-80
2023/03/27 01:14:37;;;;;;;11.00;2.00;;;;;;;2.97;100.00;98434.59;5066133;28;20211;-80
2023/03/27 01:17:26;;;;;;;10.20;2.23;;;;;;;3.10;100.00;98427.91;5071212;28;20220;-80
2023/03/27 01:20:18;;;;;;;12.37;1.83;;;;;;;3.08;100.00;98432.34;5074911;28;20197;-80
2023/03/27 01:23:26;;;;;;;8.53;2.00;;;;;;;3.03;100.00;98441.34;5069322;28;20258;-80
2023/03/27 01:26:44;;;;;;;14.47;2.23;;;;;;;2.96;100.00;98451.22;5071983;28;20352;-80
2023/03/27 01:29:22;;;;;;;11.07;2.10;;;;;;;2.93;100.00;98456.59;5069811;28;20227;-80
2023/03/27 01:32:12;;;;;;;8.67;1.80;;;;;;;2.90;100.00;98450.66;5070648;28;20199;-79
2023/03/27 01:34:56;;;;;;;7.87;2.00;;;;;;;2.89;100.00;98462.84;5067348;28;20216;-80
2023/03/27 01:37:51;;;;;;;8.73;2.43;;;;;;;2.91;100.00;98470.66;5070415;28;20277;-80
2023/03/27 01:40:27;;;;;;;11.67;2.10;;;;;;;2.86;100.00;98479.53;5069402;28;20208;-80
2023/03/27 01:43:02;;;;;;;8.53;1.90;;;;;;;2.87;100.00;98476.00;5071448;28;20249;-80
2023/03/27 01:45:36;;;;;;;13.40;2.80;;;;;;;2.77;100.00;98481.72;5069410;28;20249;-80
2023/03/27 01:48:13;;;;;;;7.37;1.60;;;;;;;2.82;100.00;98480.59;5059968;28;20196;-80
2023/03/27 01:50:45;;;;;;;10.77;2.37;;;;;;;2.79;100.00;98490.31;5046132;28;20189;-80
2023/03/27 01:53:22;;;;;;;9.27;2.20;;;;;;;2.76;100.00;98493.94;5043228;28;20219;-80
2023/03/27 01:55:57;;;;;;;14.17;2.27;;;;;;;2.79;100.00;98488.56;5015159;28;20196;-80
2023/03/27 01:58:32;;;;;;;6.77;1.87;;;;;;;2.80;100.00;98499.91;5043280;28;20220;-79
2023/03/27 02:01:02;;;;;;;5.13;1.63;;;;;;;2.74;100.00;98503.63;5012520;28;20188;-82
2023/03/27 02:03:35;;;;;;;7.87;1.93;;;;;;;2.70;100.00;98509.91;5047892;28;20197;-80
2023/03/27 02:06:09;;;;;;;6.00;1.83;;;;;;;2.69;100.00;98521.25;5046301;28;20197;-80
2023/03/27 02:08:43;;;;;;;6.63;2.10;;;;;;;2.54;100.00;98522.75;5055319;28;20227;-80
2023/03/27 02:11:15;;;;;;;6.33;1.97;;;;;;;2.65;100.00;98534.53;5059647;28;20211;-80
2023/03/27 02:13:49;;;;;;;9.70;2.27;;;;;;;2.60;100.00;98532.09;5072516;28;20253;-80
2023/03/27 02:16:21;;;;;;;7.80;2.03;;;;;;;2.55;100.00;98540.13;5065678;28;20254;-80
2023/03/27 02:18:56;;;;;;;8.03;1.90;;;;;;;2.42;100.00;98531.13;5072324;28;20239;-80
2023/03/27 02:21:25;;;;;;;11.57;2.10;;;;;;;2.50;100.00;98538.63;5068031;28;20184;-80
2023/03/27 02:23:55;;;;;;;9.90;2.23;;;;;;;2.46;100.00;98544.91;5067579;28;20215;-80
2023/03/27 02:26:25;;;;;;;12.53;2.27;;;;;;;2.41;100.00;98547.69;5067091;28;20195;-80
2023/03/27 02:29:13;;;;;;;4.60;1.87;;;;;;;2.47;100.00;98555.28;5068004;28;20651;-80
2023/03/27 02:31:54;;;;;;;10.60;1.93;;;;;;;2.54;100.00;98567.19;5019727;28;20219;-80
2023/03/27 02:34:38;;;;;;;10.67;2.23;;;;;;;2.48;100.00;98569.19;5062685;28;20239;-80
2023/03/27 02:37:17;;;;;;;8.43;2.07;;;;;;;2.38;100.00;98567.88;5066837;28;20249;-80
2023/03/27 02:39:55;;;;;;;12.60;2.60;;;;;;;2.29;100.00;98574.31;5065651;28;20224;-80
2023/03/27 02:42:33;;;;;;;7.53;2.20;;;;;;;2.41;100.00;98580.81;5069127;28;20258;-80
2023/03/27 02:45:11;;;;;;;10.77;2.00;;;;;;;2.37;100.00;98589.69;5072356;28;20407;-80
2023/03/27 02:47:43;;;;;;;9.50;2.20;;;;;;;2.43;100.00;98590.31;5066732;28;20188;-80
2023/03/27 02:50:20;;;;;;;6.93;1.83;;;;;;;2.46;100.00;98603.22;5066815;28;20204;-80
2023/03/27 02:52:51;;;;;;;8.23;2.27;;;;;;;2.27;100.00;98612.72;5063595;28;20200;-80
2023/03/27 02:55:23;;;;;;;6.57;2.20;;;;;;;2.27;100.00;98620.56;5073608;28;20259;-81
2023/03/27 02:57:58;;;;;;;8.83;2.17;;;;;;;2.21;100.00;98618.16;5074605;28;20222;-80
2023/03/27 03:00:30;;;;;;;10.83;2.17;;;;;;;2.23;100.00;98626.81;5068356;28;20199;-80
2023/03/27 03:03:08;;;;;;;10.83;2.30;;;;;;;2.09;100.00;98632.56;5071938;28;20191;-80
2023/03/27 03:05:40;;;;;;;8.20;1.90;;;;;;;2.19;100.00;98631.31;5075793;28;20274;-80
2023/03/27 03:08:09;;;;;;;7.87;2.30;;;;;;;2.22;100.00;98644.25;5075430;28;20196;-80
2023/03/27 03:10:43;;;;;;;7.23;1.90;;;;;;;2.24;100.00;98650.28;5039926;28;20552;-80
2023/03/27 03:13:12;;;;;;;7.70;2.17;;;;;;;2.26;100.00;98658.91;5070346;28;20249;-80
2023/03/27 03:15:41;;;;;;;6.67;1.90;;;;;;;2.14;100.00;98661.13;5069763;28;20206;-80
2023/03/27 03:18:12;;;;;;;6.23;1.80;;;;;;;2.26;100.00;98661.50;5071948;28;20220;-80
2023/03/27 03:20:44;;;;;;;4.93;1.90;;;;;;;2.24;100.00;98660.72;5069808;28;20252;-80
2023/03/27 03:23:16;;;;;;;9.57;2.00;;;;;;;2.21;100.00;98668.66;5069677;28;20204;-80
2023/03/27 03:25:46;;;;;;;8.30;2.27;;;;;;;2.14;100.00;98666.34;5072253;28;20216;-79
2023/03/27 03:28:18;;;;;;;9.60;2.63;;;;;;;2.07;100.00;98668.34;5066555;28;20667;-79
2023/03/27 03:30:49;;;;;;;6.60;1.90;;;;;;;2.08;100.00;98675.25;5068201;28;20260;-80
2023/03/27 03:33:18;;;;;;;8.97;2.17;;;;;;;2.12;100.00;98678.59;5069870;28;20246;-79
2023/03/27 03:35:48;;;;;;;10.60;1.97;;;;;;;2.08;100.00;98695.31;5067281;28;20196;-80
2023/03/27 03:38:23;;;;;;;6.10;2.07;;;;;;;2.02;100.00;98685.94;5036215;28;20203;-80
2023/03/27 03:40:54;;;;;;;6.23;2.10;;;;;;;2.01;100.00;98702.50;5064780;28;20206;-80
2023/03/27 03:43:29;;;;;;;7.63;2.07;;;;;;;2.16;100.00;98703.72;5072153;28;20303;-80
2023/03/27 03:45:57;;;;;;;5.30;2.00;;;;;;;2.05;100.00;98719.78;5036917;28;20203;-80
2023/03/27 03:48:26;;;;;;;4.80;1.70;;;;;;;2.09;100.00;98723.13;5068523;28;20275;-80
2023/03/27 03:50:57;;;;;;;12.80;3.00;;;;;;;2.08;100.00;98731.88;5068723;28;20287;-80
2023/03/27 03:53:25;;;;;;;7.17;2.03;;;;;;;2.04;100.00;98736.38;5069323;28;20196;-80
2023/03/27 03:55:56;;;;;;;9.87;1.97;;;;;;;2.02;100.00;98735.56;5068708;28;20196;-80
2023/03/27 03:58:26;;;;;;;5.80;2.10;;;;;;;1.96;100.00;98739.25;5064880;28;20200;-80
2023/03/27 04:01:02;;;;;;;5.50;2.27;;;;;;;1.98;100.00;98750.50;5072716;28;20200;-80
2023/03/27 04:03:31;;;;;;;9.07;2.20;;;;;;;2.03;100.00;98750.34;5074356;28;20239;-80
2023/03/27 04:06:03;;;;;;;7.87;2.23;;;;;;;1.95;100.00;98760.19;5071278;28;20246;-80
2023/03/27 04:08:32;;;;;;;5.83;2.10;;;;;;;1.91;100.00;98767.28;5068856;28;20643;-80
2023/03/27 04:11:00;;;;;;;8.07;2.50;;;;;;;1.91;100.00;98776.88;5071050;28;20254;-80
2023/03/27 04:13:31;;;;;;;7.97;2.13;;;;;;;1.94;100.00;98775.03;5068658;28;20196;-80
2023/03/27 04:16:00;;;;;;;4.90;1.90;;;;;;;2.00;100.00;98787.84;5067807;28;20196;-80
2023/03/27 04:18:31;;;;;;;13.00;2.17;;;;;;;1.75;100.00;98789.63;5064473;28;20204;-80
2023/03/27 04:21:00;;;;;;;6.80;2.30;;;;;;;1.77;100.00;98790.41;5071804;28;20234;-80
2023/03/27 04:23:30;;;;;;;10.23;2.53;;;;;;;1.71;100.00;98794.06;5068194;28;20196;-81
2023/03/27 04:26:00;;;;;;;7.77;2.10;;;;;;;1.65;100.00;98804.75;5027756;28;20196;-80
2023/03/27 04:28:33;;;;;;;8.87;2.43;;;;;;;1.66;100.00;98811.66;5029633;28;20198;-81
2023/03/27 04:31:05;;;;;;;7.13;1.97;;;;;;;1.70;100.00;98815.00;5022585;28;20272;-81
2023/03/27 04:33:38;;;;;;;10.00;1.97;;;;;;;1.73;100.00;98828.81;4954773;28;20232;-80
2023/03/27 04:36:13;;;;;;;7.73;1.83;;;;;;;1.85;100.00;98837.16;4934786;29;20207;-80
2023/03/27 04:38:41;;;;;;;6.87;1.70;;;;;;;1.78;100.00;98841.72;4946487;29;20260;-80
2023/03/27 04:41:10;;;;;;;8.63;2.03;;;;;;;1.86;100.00;98849.31;4945614;29;21153;-80
2023/03/27 04:43:42;;;;;;;13.60;2.23;;;;;;;1.80;100.00;98847.75;4963570;28;20202;-80
2023/03/27 04:46:10;;;;;;;6.37;1.97;;;;;;;1.77;100.00;98860.91;4952762;29;20196;-80
2023/03/27 04:48:38;;;;;;;5.47;1.90;;;;;;;1.80;100.00;98854.72;4938284;29;20200;-80
2023/03/27 04:51:08;;;;;;;9.13;2.07;;;;;;;1.71;100.00;98854.13;4965673;28;20373;-80
2023/03/27 04:53:37;;;;;;;6.40;1.77;;;;;;;1.83;100.00;98860.69;5027909;28;20240;-80
2023/03/27 04:56:08;;;;;;;4.50;1.70;;;;;;;1.81;100.00;98870.31;4985640;28;20203;-80
2023/03/27 04:58:36;;;;;;;5.70;2.07;;;;;;;1.83;100.00;98867.66;4987105;28;20242;-80
2023/03/27 05:01:07;;;;;;;8.43;1.80;;;;;;;1.89;100.00;98876.16;4989431;28;20289;-80
2023/03/27 05:03:40;;;;;;;6.70;2.07;;;;;;;1.91;100.00;98878.69;4999363;28;20200;-80
2023/03/27 05:06:09;;;;;;;10.83;2.30;;;;;;;1.87;100.00;98877.13;5022885;28;20186;-81
2023/03/27 05:08:37;;;;;;;6.30;2.07;;;;;;;1.92;100.00;98886.47;5023443;28;20251;-80
2023/03/27 05:11:06;;;;;;;6.37;1.80;;;;;;;1.90;100.00;98883.06;5025696;28;20205;-80
2023/03/27 05:13:36;;;;;;;8.70;1.67;;;;;;;1.98;100.00;98886.28;5033269;28;20234;-80
2023/03/27 05:16:09;;;;;;;6.80;1.77;;;;;;;2.00;100.00;98887.09;5066526;28;20196;-80
2023/03/27 05:18:37;;;;;;;7.27;1.90;;;;;;;1.94;100.00;98899.50;5015890;28;20231;-80
2023/03/27 05:21:09;;;;;;;6.63;1.97;;;;;;;1.87;100.00;98898.84;5068282;28;20223;-80
2023/03/27 05:23:40;;;;;;;5.97;2.20;;;;;;;1.94;100.00;98905.59;5070445;28;20200;-80
2023/03/27 05:26:09;;;;;;;10.57;2.20;;;;;;;2.08;100.00;98909.50;5071922;28;20265;-80
2023/03/27 05:28:38;;;;;;;6.97;2.30;;;;;;;2.13;100.00;98915.44;5063601;28;20258;-80
2023/03/27 05:31:09;;;;;;;6.80;2.17;;;;;;;2.09;100.00;98919.88;5070423;28;20197;-80
2023/03/27 05:33:38;;;;;;;9.07;1.87;;;;;;;2.14;100.00;98923.19;5073637;28;20315;-80
2023/03/27 05:36:08;;;;;;;5.90;1.77;;;;;;;2.11;100.00;98932.88;5066655;28;20200;-80
2023/03/27 05:38:36;;;;;;;7.20;1.83;;;;;;;2.00;100.00;98939.31;4974947;28;20219;-80
2023/03/27 05:41:06;;;;;;;7.80;2.03;;;;;;;2.00;100.00;98941.94;4909033;29;20241;-79
2023/03/27 05:43:34;;;;;;;5.90;1.80;;;;;;;2.01;100.00;98942.78;4873612;29;20206;-80
2023/03/27 05:46:05;;;;;;;7.17;1.77;;;;;;;1.97;100.00;98957.72;4873931;29;20202;-80
2023/03/27 05:48:35;;;;;;;12.03;2.27;;;;;;;2.12;100.00;98960.72;4875080;29;20388;-80
2023/03/27 05:51:04;;;;;;;8.30;1.77;;;;;;;2.04;100.00;98957.53;4870749;29;20199;-80
2023/03/27 05:53:35;;;;;;;5.83;2.00;;;;;;;2.08;100.00;98966.94;4870093;29;20250;-80
2023/03/27 05:56:03;;;;;;;7.43;1.50;;;;;;;2.05;100.00;98973.13;4867953;29;20274;-80
2023/03/27 05:58:31;;;;;;;8.27;2.20;;;;;;;2.09;100.00;98977.34;4874618;29;20243;-80
2023/03/27 06:01:01;;;;;;;5.87;1.70;;;;;;;2.15;100.00;98977.16;4876739;29;20222;-80
2023/03/27 06:03:30;;;;;;;6.97;2.03;;;;;;;2.12;100.00;98990.28;4904607;29;20252;-80
2023/03/27 06:06:07;;;;;;;7.40;2.10;;;;;;;2.20;100.00;98995.28;4984859;28;20197;-80
2023/03/27 06:08:36;;;;;;;5.43;1.90;;;;;;;2.20;100.00;98996.13;5052184;28;20201;-80
2023/03/27 06:11:09;;;;;;;9.00;2.30;;;;;;;1.73;100.00;98995.88;5065675;28;20303;-80
2023/03/27 06:13:38;;;;;;;4.00;1.63;;;;;;;1.89;100.00;99006.72;5068571;28;20192;-80
2023/03/27 06:16:09;;;;;;;5.80;1.90;;;;;;;1.84;100.00;99013.84;5064648;28;20204;-80
2023/03/27 06:18:38;;;;;;;9.60;2.40;;;;;;;1.74;100.00;99009.81;5072552;28;20238;-80
2023/03/27 06:21:09;;;;;;;9.00;2.50;;;;;;;1.72;100.00;99011.59;5074608;28;20212;-80
2023/03/27 06:23:37;;;;;;;7.23;1.83;;;;;;;1.87;100.00;99008.53;5064264;28;20204;-81
2023/03/27 06:26:06;;;;;;;5.83;1.80;;;;;;;1.92;100.00;99018.81;5062182;28;20200;-80
2023/03/27 06:28:37;;;;;;;8.07;2.60;;;;;;;1.76;100.00;99021.06;5064342;28;20193;-80
2023/03/27 06:31:08;;;;;;;8.47;2.30;;;;;;;1.97;100.00;99027.38;5070595;28;20234;-80
2023/03/27 06:33:38;;;;;;;7.27;2.10;;;;;;;2.07;100.00;99033.16;5070829;28;20227;-80
2023/03/27 06:36:11;;;;;;;8.20;2.33;;;;;;;2.02;100.00;99038.50;5074087;28;20200;-80
2023/03/27 06:38:40;;;;;;;9.30;2.27;;;;;;;2.16;100.00;99033.72;5070973;28;20189;-81
2023/03/27 06:41:09;;;;;;;7.67;2.10;;;;;;;2.28;100.00;99043.78;5068913;28;20227;-80
2023/03/27 06:43:38;;;;;;;10.43;2.53;;;;;;;2.10;100.00;99051.34;5071001;28;20586;-80
2023/03/27 06:46:11;;;;;;;9.03;2.50;;;;;;;2.38;100.00;99052.16;5070568;28;20215;-80
2023/03/27 06:48:39;;;;;;;7.87;2.80;;;;;;;2.52;100.00;99049.97;5063011;28;20200;-80
2023/03/27 06:51:09;;;;;;;9.10;2.53;;;;;;;2.64;100.00;99053.94;5067009;28;20197;-80
2023/03/27 06:53:38;;;;;;;6.90;2.13;;;;;;;2.57;100.00;99052.41;5072415;28;20189;-80
2023/03/27 06:56:08;;;;;;;10.47;2.50;;;;;;;2.79;100.00;99058.63;5066955;28;20192;-80
2023/03/27 06:58:36;;;;;;;10.23;2.03;;;;;;;2.96;100.00;99065.91;5075922;28;20258;-80
2023/03/27 07:01:05;;;;;;;9.17;2.67;;;;;;;3.03;100.00;99066.53;5070885;28;20270;-80
2023/03/27 07:03:33;;;;;;;11.57;2.53;;;;;;;3.10;100.00;99081.13;5007717;28;20202;-80
2023/03/27 07:06:02;;;;;;;9.17;2.60;;;;;;;3.10;100.00;99081.13;5013749;28;20198;-80
2023/03/27 07:08:32;;;;;;;8.77;2.87;;;;;;;3.28;100.00;99085.72;5012169;28;20338;-80
2023/03/27 07:11:00;;;;;;;8.97;2.30;;;;;;;3.35;100.00;99086.31;5008164;28;20793;-80
2023/03/27 07:13:39;;;;;;;8.93;2.40;;;;;;;3.10;100.00;99086.38;5013869;28;20317;-79
2023/03/27 07:16:10;;;;;;;8.50;2.30;;;;;;;3.37;100.00;99095.81;5013694;28;20194;-80
2023/03/27 07:18:38;;;;;;;10.87;2.30;;;;;;;3.49;100.00;99106.78;5006977;28;20267;-80
2023/03/27 07:21:07;;;;;;;9.17;2.30;;;;;;;3.51;100.00;99097.13;5028054;28;20225;-79
2023/03/27 07:23:37;;;;;;;8.93;2.00;;;;;;;3.58;100.00;99107.31;5073612;28;20200;-80
2023/03/27 07:26:06;;;;;;;9.30;2.03;;;;;;;3.73;100.00;99095.41;5066729;28;20287;-80
2023/03/27 07:28:37;;;;;;;7.37;2.37;;;;;;;3.87;100.00;99106.22;5071461;28;20196;-80
2023/03/27 07:31:10;;;;;;;15.60;2.27;;;;;;;3.94;100.00;99107.69;5072880;28;20245;-79
2023/03/27 07:34:00;;;;;;;8.43;1.97;;;;;;;3.83;100.00;99103.78;5075128;28;20327;-80
2023/03/27 07:36:30;;;;;;;8.77;2.27;;;;;;;3.96;100.00;99105.88;5070799;28;20200;-80
2023/03/27 07:39:01;;;;;;;11.03;2.23;;;;;;;3.87;100.00;99111.47;5070301;28;20204;-80
2023/03/27 07:41:30;;;;;;;9.20;2.30;;;;;;;3.88;100.00;99120.19;5021269;28;20216;-80
2023/03/27 07:43:59;;;;;;;9.87;2.40;;;;;;;3.85;100.00;99123.75;5068890;28;20272;-80
2023/03/27 07:46:27;;;;;;;10.27;1.93;;;;;;;3.84;100.00;99122.03;5071973;28;20197;-80
2023/03/27 07:48:56;;;;;;;15.97;2.33;;;;;;;3.94;100.00;99123.41;5063663;28;20215;-80
2023/03/27 07:51:26;;;;;;;8.03;1.97;;;;;;;3.94;100.00;99133.03;5066553;28;20196;-79
2023/03/27 07:53:57;;;;;;;9.70;2.10;;;;;;;4.13;100.00;99133.19;5071999;28;20196;-80
2023/03/27 07:56:27;;;;;;;9.47;2.13;;;;;;;4.29;100.00;99134.31;5067271;28;20227;-80
2023/03/27 07:58:59;;;;;;;9.90;1.90;;;;;;;4.29;100.00;99142.19;5071918;28;20453;-80
2023/03/27 08:01:29;;;;;;;9.73;2.17;;;;;;;4.48;100.00;99142.31;5069734;28;20223;-80
2023/03/27 08:03:58;;;;;;;5.90;1.97;;;;;;;4.36;100.00;99143.66;5071818;28;20196;-80
2023/03/27 08:06:28;;;;;;;8.57;2.07;;;;;;;4.67;100.00;99147.69;5067124;28;20268;-79
2023/03/27 08:08:57;;;;;;;11.33;2.40;;;;;;;4.63;100.00;99140.84;5069273;28;20235;-80
2023/03/27 08:11:29;;;;;;;9.77;2.37;;;;;;;4.97;100.00;99151.69;5021557;28;20245;-80
2023/03/27 08:14:00;;;;;;;8.33;2.50;;;;;;;4.93;100.00;99157.13;5071776;28;20206;-79
2023/03/27 08:16:29;;;;;;;7.73;2.30;;;;;;;4.82;100.00;99153.16;5019683;28;20185;-79
2023/03/27 08:18:59;;;;;;;6.10;2.00;;;;;;;4.91;100.00;99151.94;5067364;28;20207;-80
2023/03/27 08:21:32;;;;;;;7.53;2.40;;;;;;;4.90;100.00;99163.34;5069152;28;20220;-80
2023/03/27 08:24:01;;;;;;;6.73;1.60;;;;;;;4.74;100.00;99163.13;5069654;28;20353;-79
2023/03/27 08:26:31;;;;;;;7.37;2.00;;;;;;;4.82;100.00;99153.16;5066981;28;20200;-80
2023/03/27 08:29:00;;;;;;;6.30;1.60;;;;;;;4.82;100.00;99152.28;5068654;28;20197;-80
2023/03/27 08:31:29;;;;;;;4.27;1.57;;;;;;;5.07;100.00;99174.00;5068441;28;20215;-80
2023/03/27 08:33:59;;;;;;;6.53;1.57;;;;;;;5.20;100.00;99163.84;5075390;28;20216;-80
2023/03/27 08:36:27;;;;;;;6.83;1.53;;;;;;;5.26;100.00;99160.97;5074553;28;20200;-80
2023/03/27 08:38:57;;;;;;;5.80;1.10;;;;;;;5.30;100.00;99166.94;5070989;28;20195;-80
2023/03/27 08:41:31;;;;;;;5.93;1.50;;;;;;;5.54;100.00;99165.88;5062727;28;20254;-80
2023/03/27 08:44:05;;;;;;;4.17;1.40;;;;;;;5.80;100.00;99174.41;5068727;28;20192;-80
2023/03/27 08:46:40;;;;;;;5.47;1.20;;;;;;;5.90;100.00;99179.22;5068471;28;20196;-80
2023/03/27 08:49:13;;;;;;;5.60;1.40;;;;;;;6.14;100.00;99184.28;5068098;28;20219;-80
2023/03/27 08:51:47;;;;;;;4.30;1.03;;;;;;;6.28;100.00;99180.13;5072203;28;20200;-80
2023/03/27 08:54:20;;;;;;;6.00;1.37;;;;;;;6.20;100.00;99190.13;5068177;28;20265;-80
2023/03/27 08:56:48;;;;;;;4.10;1.00;;;;;;;5.93;100.00;99184.34;5066980;28;20197;-80
2023/03/27 08:59:21;;;;;;;4.83;1.37;;;;;;;5.87;100.00;99196.84;5064143;28;20210;-79
2023/03/27 09:01:54;;;;;;;3.63;1.10;;;;;;;5.77;100.00;99200.81;5068231;28;20216;-80
2023/03/27 09:04:36;;;;;;;4.07;1.00;;;;;;;5.87;100.00;99192.44;5067062;28;20258;-80
2023/03/27 09:07:11;;;;;;;7.63;1.50;;;;;;;6.28;100.00;99195.03;5073503;28;20273;-80
2023/03/27 09:09:46;;;;;;;8.10;1.30;;;;;;;6.55;100.00;99201.63;5065314;28;20188;-80
2023/03/27 09:12:30;;;;;;;5.63;1.10;;;;;;;6.46;100.00;99198.56;5066294;28;20258;-80
2023/03/27 09:15:04;;;;;;;4.00;1.17;;;;;;;6.27;100.00;99196.81;5072990;28;20227;-79
2023/03/27 09:17:37;;;;;;;3.13;1.00;;;;;;;6.08;100.00;99198.59;5036417;28;20253;-80
2023/03/27 09:20:16;;;;;;;4.37;1.13;;;;;;;5.99;100.00;99202.47;5070104;28;20193;-80
2023/03/27 09:22:51;;;;;;;4.27;1.23;;;;;;;6.00;100.00;99203.31;5010925;28;20293;-80
2023/03/27 09:25:26;;;;;;;3.70;0.97;;;;;;;5.93;100.00;99215.88;5006250;28;20194;-80
2023/03/27 09:27:57;;;;;;;5.27;1.20;;;;;;;5.97;100.00;99213.97;4949518;28;20200;-80
2023/03/27 09:30:30;;;;;;;6.80;1.37;;;;;;;6.17;100.00;99213.06;4949111;28;20208;-80
2023/03/27 09:33:02;;;;;;;3.93;1.10;;;;;;;6.43;100.00;99204.00;4950590;28;20200;-81
2023/03/27 09:35:34;;;;;;;6.43;1.07;;;;;;;6.67;100.00;99221.28;4945204;28;20276;-80
2023/03/27 09:38:15;;;;;;;6.90;1.10;;;;;;;6.53;100.00;99218.41;4972197;28;20207;-80
2023/03/27 09:40:49;;;;;;;6.67;1.40;;;;;;;6.08;100.00;99216.09;4965226;28;20200;-80
2023/03/27 09:43:22;;;;;;;3.23;1.03;;;;;;;6.01;100.00;99228.69;4969530;28;20227;-80
2023/03/27 09:45:58;;;;;;;4.37;1.50;;;;;;;5.67;100.00;99234.50;4983808;28;20240;-80
2023/03/27 09:48:35;;;;;;;3.43;0.93;;;;;;;5.67;100.00;99237.16;5046699;28;20701;-80
2023/03/27 09:51:04;;;;;;;3.80;1.00;;;;;;;5.41;100.00;99231.25;5047612;28;20201;-80
2023/03/27 09:53:34;;;;;;;3.27;1.00;;;;;;;5.69;100.00;99230.03;5045054;28;20193;-79
2023/03/27 09:56:05;;;;;;;5.47;1.33;;;;;;;5.85;100.00;99232.88;5046974;28;20689;-80
2023/03/27 09:58:39;;;;;;;2.10;0.97;;;;;;;6.05;100.00;99235.50;5063310;28;20269;-80
2023/03/27 10:01:14;;;;;;;4.13;1.17;;;;;;;6.50;100.00;99247.50;5026182;28;20205;-80
2023/03/27 10:03:50;;;;;;;6.90;1.20;;;;;;;6.70;100.00;99231.66;5027265;28;20216;-80
2023/03/27 10:06:32;;;;;;;5.20;1.30;;;;;;;6.97;100.00;99245.28;5027735;28;20196;-80
2023/03/27 10:09:01;;;;;;;2.77;0.90;;;;;;;6.27;100.00;99246.78;5030263;28;20190;-80
2023/03/27 10:11:33;;;;;;;2.43;0.90;;;;;;;5.64;100.00;99251.28;5032203;28;20202;-80
2023/03/27 10:14:10;;;;;;;4.00;1.20;;;;;;;5.71;100.00;99250.09;4994059;28;20252;-81
2023/03/27 10:16:41;;;;;;;3.23;1.03;;;;;;;6.12;100.00;99254.50;5025158;28;20199;-81
2023/03/27 10:19:24;;;;;;;3.83;1.30;;;;;;;6.12;100.00;99247.47;5050571;28;20203;-80
2023/03/27 10:21:54;;;;;;;4.93;1.00;;;;;;;6.37;100.00;99247.22;5067543;28;20296;-81
2023/03/27 10:24:30;;;;;;;3.70;1.40;;;;;;;6.70;100.00;99251.84;5067551;28;20189;-82
2023/03/27 10:27:00;;;;;;;3.73;0.90;;;;;;;6.96;100.00;99261.16;5069146;28;20200;-80
2023/03/27 10:29:33;;;;;;;8.67;1.07;;;;;;;6.83;100.00;99259.09;5063898;28;20275;-80
2023/03/27 10:32:05;;;;;;;1.10;0.77;;;;;;;6.83;100.00;99258.25;5070337;28;20207;-80
2023/03/27 10:34:37;;;;;;;4.93;1.10;;;;;;;7.13;100.00;99267.31;5066018;28;20224;-80
2023/03/27 10:37:20;;;;;;;5.50;1.33;;;;;;;6.65;100.00;99259.94;5062558;28;20193;-80
2023/03/27 10:39:48;;;;;;;3.50;1.20;;;;;;;6.48;100.00;99258.13;5069440;28;20704;-80
2023/03/27 10:42:18;;;;;;;6.33;1.10;;;;;;;6.57;100.00;99248.94;5002838;28;20277;-80
2023/03/27 10:44:53;;;;;;;4.53;1.43;;;;;;;6.99;100.00;99243.44;5010658;28;20209;-81
2023/03/27 10:47:26;;;;;;;2.93;1.30;;;;;;;7.79;99.68;99250.00;5007919;28;20225;-80
2023/03/27 10:50:04;;;;;;;3.37;1.00;;;;;;;8.00;86.26;99252.38;5010387;28;20233;-81
2023/03/27 10:52:38;;;;;;;4.40;1.00;;;;;;;7.75;78.27;99262.50;5007010;28;20224;-79
2023/03/27 10:55:24;;;;;;;3.80;1.00;;;;;;;7.51;71.80;99266.38;5005779;28;20229;-80
2023/03/27 10:57:58;;;;;;;2.90;0.93;;;;;;;7.59;72.47;99264.19;4948968;29;20243;-80
2023/03/27 11:00:35;;;;;;;4.33;1.30;;;;;;;8.11;70.33;99257.13;4971299;28;20198;-80
2023/03/27 11:03:12;;;;;;;5.07;1.00;;;;;;;8.25;71.62;99262.53;5007228;28;20674;-80
2023/03/27 11:05:46;;;;;;;1.93;0.80;;;;;;;8.16;63.43;99265.63;5007491;28;20253;-81
2023/03/27 11:08:22;;;;;;;1.77;0.90;;;;;;;8.89;68.01;99258.22;4942113;28;20215;-81
2023/03/27 11:10:50;;;;;;;8.07;1.33;;;;;;;9.02;64.17;99261.88;4984378;28;20194;-81
2023/03/27 11:13:26;;;;;;;3.03;1.07;;;;;;;8.82;62.79;99262.13;4977907;28;20207;-81
2023/03/27 11:16:07;;;;;;;1.70;1.00;;;;;;;8.91;63.82;99252.84;5012062;28;20204;-81
2023/03/27 11:18:40;;;;;;;3.73;1.13;;;;;;;9.09;65.46;99259.75;5048787;28;20192;-81
2023/03/27 11:21:13;;;;;;;2.00;1.00;;;;;;;9.44;63.57;99277.06;5046964;28;20694;-81
2023/03/27 11:23:48;;;;;;;3.17;1.10;;;;;;;9.26;59.52;99272.00;5044432;28;20243;-81
2023/03/27 11:26:19;;;;;;;3.27;1.47;;;;;;;9.30;59.26;99273.53;5049420;28;20238;-81
2023/03/27 11:28:54;;;;;;;1.40;0.90;;;;;;;9.26;55.48;99267.56;5049160;28;20208;-81
2023/03/27 11:31:36;;;;;;;3.60;1.07;;;;;;;9.64;54.71;99275.91;5045770;28;20658;-81
2023/03/27 11:34:13;;;;;;;3.60;1.20;;;;;;;9.33;55.58;99271.56;5073658;28;20259;-81
2023/03/27 11:37:01;;;;;;;3.37;1.27;;;;;;;9.40;57.93;99269.44;5073671;28;20185;-80
2023/03/27 11:39:36;;;;;;;5.00;1.30;;;;;;;9.06;58.02;99281.03;5072922;28;20229;-81
2023/03/27 11:42:14;;;;;;;3.70;1.23;;;;;;;9.34;58.66;99277.69;5070943;28;20675;-81
2023/03/27 11:44:43;;;;;;;2.23;1.10;;;;;;;9.66;55.97;99284.66;5071690;28;20208;-81
2023/03/27 11:47:33;;;;;;;3.57;0.90;;;;;;;10.11;57.37;99277.56;5067556;28;20199;-81
2023/03/27 11:50:17;;;;;;;5.90;1.20;;;;;;;10.37;56.91;99283.97;5073356;28;20658;-81
2023/03/27 11:52:56;;;;;;;6.43;1.47;;;;;;;9.75;55.79;99278.81;5068793;28;20189;-81
2023/03/27 11:55:33;;;;;;;4.03;1.10;;;;;;;9.24;59.14;99287.94;5065810;28;20204;-81
2023/03/27 11:58:16;;;;;;;4.30;1.10;;;;;;;8.85;62.57;99293.66;5019115;28;20200;-81